sensor_id;sensor_type;location;lat;lon;timestamp;P1;durP1;ratioP1;P2;durP2;ratioP2
4504;SDS011;2265;48.794;9.520;2023-10-19T00:01:53;17.37;;;8.37;;
4504;SDS011;2265;48.794;9.520;2023-10-19T00:04:20;22.50;;;9.40;;
4504;SDS011;2265;48.794;9.520;2023-10-19T00:06:47;17.00;;;8.43;;
4504;SDS011;2265;48.794;9.520;2023-10-19T00:09:14;17.57;;;8.20;;
4504;SDS011;2265;48.794;9.520;2023-10-19T00:11:41;22.10;;;10.10;;
4504;SDS011;2265;48.794;9.520;2023-10-19T00:14:07;20.43;;;8.83;;
4504;SDS011;2265;48.794;9.520;2023-10-19T00:16:42;18.80;;;8.73;;
4504;SDS011;2265;48.794;9.520;2023-10-19T00:19:15;16.77;;;8.30;;
4504;SDS011;2265;48.794;9.520;2023-10-19T00:21:45;17.77;;;8.20;;
4504;SDS011;2265;48.794;9.520;2023-10-19T00:24:16;18.00;;;8.87;;
4504;SDS011;2265;48.794;9.520;2023-10-19T00:26:45;21.40;;;8.23;;
4504;SDS011;2265;48.794;9.520;2023-10-19T00:29:13;16.27;;;7.90;;
4504;SDS011;2265;48.794;9.520;2023-10-19T00:31:57;16.47;;;7.60;;
4504;SDS011;2265;48.794;9.520;2023-10-19T00:34:24;18.93;;;8.90;;
4504;SDS011;2265;48.794;9.520;2023-10-19T00:36:53;17.17;;;8.60;;
4504;SDS011;2265;48.794;9.520;2023-10-19T00:39:21;15.90;;;8.30;;
4504;SDS011;2265;48.794;9.520;2023-10-19T00:41:49;15.30;;;6.70;;
4504;SDS011;2265;48.794;9.520;2023-10-19T00:44:18;22.83;;;8.90;;
4504;SDS011;2265;48.794;9.520;2023-10-19T00:46:51;16.87;;;8.30;;
4504;SDS011;2265;48.794;9.520;2023-10-19T00:49:27;17.37;;;8.10;;
4504;SDS011;2265;48.794;9.520;2023-10-19T00:51:55;17.90;;;8.50;;
4504;SDS011;2265;48.794;9.520;2023-10-19T00:54:29;18.23;;;9.43;;
4504;SDS011;2265;48.794;9.520;2023-10-19T00:57:01;18.60;;;8.53;;
4504;SDS011;2265;48.794;9.520;2023-10-19T00:59:31;20.87;;;9.10;;
4504;SDS011;2265;48.794;9.520;2023-10-19T01:02:04;16.43;;;7.87;;
4504;SDS011;2265;48.794;9.520;2023-10-19T01:04:44;20.63;;;8.03;;
4504;SDS011;2265;48.794;9.520;2023-10-19T01:07:16;16.00;;;7.60;;
4504;SDS011;2265;48.794;9.520;2023-10-19T01:09:48;19.80;;;9.00;;
4504;SDS011;2265;48.794;9.520;2023-10-19T01:12:18;14.73;;;7.67;;
4504;SDS011;2265;48.794;9.520;2023-10-19T01:15:05;20.13;;;8.07;;
4504;SDS011;2265;48.794;9.520;2023-10-19T01:17:41;17.60;;;8.37;;
4504;SDS011;2265;48.794;9.520;2023-10-19T01:20:11;18.83;;;8.80;;
4504;SDS011;2265;48.794;9.520;2023-10-19T01:22:52;16.97;;;8.13;;
4504;SDS011;2265;48.794;9.520;2023-10-19T01:25:31;21.37;;;8.83;;
4504;SDS011;2265;48.794;9.520;2023-10-19T01:28:02;18.93;;;8.80;;
4504;SDS011;2265;48.794;9.520;2023-10-19T01:30:33;18.37;;;8.47;;
4504;SDS011;2265;48.794;9.520;2023-10-19T01:33:01;19.30;;;8.90;;
4504;SDS011;2265;48.794;9.520;2023-10-19T01:35:29;16.90;;;8.50;;
4504;SDS011;2265;48.794;9.520;2023-10-19T01:38:19;18.63;;;8.30;;
4504;SDS011;2265;48.794;9.520;2023-10-19T01:40:45;19.63;;;7.83;;
4504;SDS011;2265;48.794;9.520;2023-10-19T01:43:13;19.37;;;8.67;;
4504;SDS011;2265;48.794;9.520;2023-10-19T01:45:45;15.37;;;7.03;;
4504;SDS011;2265;48.794;9.520;2023-10-19T01:48:13;16.30;;;7.70;;
4504;SDS011;2265;48.794;9.520;2023-10-19T01:50:41;16.60;;;8.27;;
4504;SDS011;2265;48.794;9.520;2023-10-19T01:53:08;18.60;;;7.93;;
4504;SDS011;2265;48.794;9.520;2023-10-19T01:55:42;16.37;;;7.47;;
4504;SDS011;2265;48.794;9.520;2023-10-19T01:58:12;17.73;;;8.20;;
4504;SDS011;2265;48.794;9.520;2023-10-19T02:00:39;17.73;;;8.53;;
4504;SDS011;2265;48.794;9.520;2023-10-19T02:03:08;15.60;;;7.70;;
4504;SDS011;2265;48.794;9.520;2023-10-19T02:05:34;15.23;;;7.77;;
4504;SDS011;2265;48.794;9.520;2023-10-19T02:08:07;15.90;;;8.27;;
4504;SDS011;2265;48.794;9.520;2023-10-19T02:10:33;14.13;;;7.10;;
4504;SDS011;2265;48.794;9.520;2023-10-19T02:13:05;14.70;;;6.87;;
4504;SDS011;2265;48.794;9.520;2023-10-19T02:15:36;16.73;;;7.10;;
4504;SDS011;2265;48.794;9.520;2023-10-19T02:18:04;15.43;;;7.17;;
4504;SDS011;2265;48.794;9.520;2023-10-19T02:20:30;18.90;;;8.17;;
4504;SDS011;2265;48.794;9.520;2023-10-19T02:22:57;12.80;;;7.10;;
4504;SDS011;2265;48.794;9.520;2023-10-19T02:25:24;15.77;;;7.87;;
4504;SDS011;2265;48.794;9.520;2023-10-19T02:27:56;14.77;;;7.53;;
4504;SDS011;2265;48.794;9.520;2023-10-19T02:30:24;16.87;;;8.40;;
4504;SDS011;2265;48.794;9.520;2023-10-19T02:32:51;21.83;;;8.10;;
4504;SDS011;2265;48.794;9.520;2023-10-19T02:35:18;14.00;;;6.90;;
4504;SDS011;2265;48.794;9.520;2023-10-19T02:37:44;16.27;;;7.20;;
4504;SDS011;2265;48.794;9.520;2023-10-19T02:40:13;16.17;;;7.30;;
4504;SDS011;2265;48.794;9.520;2023-10-19T02:42:45;15.40;;;7.60;;
4504;SDS011;2265;48.794;9.520;2023-10-19T02:45:14;17.03;;;8.20;;
4504;SDS011;2265;48.794;9.520;2023-10-19T02:47:43;16.13;;;7.57;;
4504;SDS011;2265;48.794;9.520;2023-10-19T02:50:10;14.17;;;6.67;;
4504;SDS011;2265;48.794;9.520;2023-10-19T02:52:38;13.47;;;7.20;;
4504;SDS011;2265;48.794;9.520;2023-10-19T02:55:10;14.40;;;7.27;;
4504;SDS011;2265;48.794;9.520;2023-10-19T02:57:36;14.93;;;7.00;;
4504;SDS011;2265;48.794;9.520;2023-10-19T03:00:05;16.77;;;7.80;;
4504;SDS011;2265;48.794;9.520;2023-10-19T03:02:37;14.17;;;7.17;;
4504;SDS011;2265;48.794;9.520;2023-10-19T03:05:06;17.30;;;7.90;;
4504;SDS011;2265;48.794;9.520;2023-10-19T03:07:39;16.27;;;7.43;;
4504;SDS011;2265;48.794;9.520;2023-10-19T03:10:08;16.60;;;8.00;;
4504;SDS011;2265;48.794;9.520;2023-10-19T03:12:49;15.90;;;7.50;;
4504;SDS011;2265;48.794;9.520;2023-10-19T03:15:17;14.13;;;7.60;;
4504;SDS011;2265;48.794;9.520;2023-10-19T03:17:46;14.63;;;6.87;;
4504;SDS011;2265;48.794;9.520;2023-10-19T03:20:13;16.63;;;7.90;;
4504;SDS011;2265;48.794;9.520;2023-10-19T03:22:42;13.73;;;5.90;;
4504;SDS011;2265;48.794;9.520;2023-10-19T03:25:08;13.10;;;6.93;;
4504;SDS011;2265;48.794;9.520;2023-10-19T03:28:01;16.03;;;7.40;;
4504;SDS011;2265;48.794;9.520;2023-10-19T03:30:33;16.30;;;7.77;;
4504;SDS011;2265;48.794;9.520;2023-10-19T03:33:05;12.77;;;6.70;;
4504;SDS011;2265;48.794;9.520;2023-10-19T03:35:36;15.63;;;6.83;;
4504;SDS011;2265;48.794;9.520;2023-10-19T03:38:06;13.67;;;6.17;;
4504;SDS011;2265;48.794;9.520;2023-10-19T03:40:39;17.20;;;7.50;;
4504;SDS011;2265;48.794;9.520;2023-10-19T03:43:11;14.00;;;7.47;;
4504;SDS011;2265;48.794;9.520;2023-10-19T03:45:46;15.93;;;7.30;;
4504;SDS011;2265;48.794;9.520;2023-10-19T03:48:17;15.17;;;6.70;;
4504;SDS011;2265;48.794;9.520;2023-10-19T03:50:57;14.33;;;7.07;;
4504;SDS011;2265;48.794;9.520;2023-10-19T03:53:27;14.37;;;6.70;;
4504;SDS011;2265;48.794;9.520;2023-10-19T03:55:53;14.13;;;7.10;;
4504;SDS011;2265;48.794;9.520;2023-10-19T03:58:20;12.80;;;6.10;;
4504;SDS011;2265;48.794;9.520;2023-10-19T04:00:48;14.47;;;7.70;;
4504;SDS011;2265;48.794;9.520;2023-10-19T04:03:18;11.97;;;6.37;;
4504;SDS011;2265;48.794;9.520;2023-10-19T04:05:49;11.67;;;6.37;;
4504;SDS011;2265;48.794;9.520;2023-10-19T04:08:18;13.43;;;6.90;;
4504;SDS011;2265;48.794;9.520;2023-10-19T04:10:51;14.97;;;6.47;;
4504;SDS011;2265;48.794;9.520;2023-10-19T04:13:32;19.03;;;7.00;;
4504;SDS011;2265;48.794;9.520;2023-10-19T04:15:59;16.60;;;7.50;;
4504;SDS011;2265;48.794;9.520;2023-10-19T04:18:26;15.10;;;6.57;;
4504;SDS011;2265;48.794;9.520;2023-10-19T04:20:53;15.10;;;6.87;;
4504;SDS011;2265;48.794;9.520;2023-10-19T04:23:23;13.60;;;6.57;;
4504;SDS011;2265;48.794;9.520;2023-10-19T04:25:53;20.27;;;7.07;;
4504;SDS011;2265;48.794;9.520;2023-10-19T04:28:23;16.97;;;6.60;;
4504;SDS011;2265;48.794;9.520;2023-10-19T04:31:03;12.90;;;6.50;;
4504;SDS011;2265;48.794;9.520;2023-10-19T04:33:31;22.53;;;9.40;;
4504;SDS011;2265;48.794;9.520;2023-10-19T04:35:59;19.57;;;8.33;;
4504;SDS011;2265;48.794;9.520;2023-10-19T04:38:28;18.87;;;8.33;;
4504;SDS011;2265;48.794;9.520;2023-10-19T04:41:04;16.10;;;7.67;;
4504;SDS011;2265;48.794;9.520;2023-10-19T04:43:33;13.57;;;6.60;;
4504;SDS011;2265;48.794;9.520;2023-10-19T04:46:04;14.90;;;7.03;;
4504;SDS011;2265;48.794;9.520;2023-10-19T04:48:36;15.90;;;7.43;;
4504;SDS011;2265;48.794;9.520;2023-10-19T04:51:05;22.07;;;9.00;;
4504;SDS011;2265;48.794;9.520;2023-10-19T04:53:35;19.13;;;7.47;;
4504;SDS011;2265;48.794;9.520;2023-10-19T04:56:03;19.07;;;8.50;;
4504;SDS011;2265;48.794;9.520;2023-10-19T04:58:34;17.20;;;8.00;;
4504;SDS011;2265;48.794;9.520;2023-10-19T05:01:01;13.33;;;6.80;;
4504;SDS011;2265;48.794;9.520;2023-10-19T05:03:29;12.90;;;6.27;;
4504;SDS011;2265;48.794;9.520;2023-10-19T05:05:56;17.50;;;7.60;;
4504;SDS011;2265;48.794;9.520;2023-10-19T05:08:23;15.57;;;7.43;;
4504;SDS011;2265;48.794;9.520;2023-10-19T05:10:56;22.07;;;8.80;;
4504;SDS011;2265;48.794;9.520;2023-10-19T05:13:25;20.47;;;7.70;;
4504;SDS011;2265;48.794;9.520;2023-10-19T05:15:53;13.93;;;6.60;;
4504;SDS011;2265;48.794;9.520;2023-10-19T05:18:20;15.47;;;7.10;;
4504;SDS011;2265;48.794;9.520;2023-10-19T05:20:48;22.33;;;6.97;;
4504;SDS011;2265;48.794;9.520;2023-10-19T05:23:20;18.03;;;7.50;;
4504;SDS011;2265;48.794;9.520;2023-10-19T05:25:49;15.83;;;7.10;;
4504;SDS011;2265;48.794;9.520;2023-10-19T05:28:18;14.53;;;6.40;;
4504;SDS011;2265;48.794;9.520;2023-10-19T05:30:47;13.50;;;6.30;;
4504;SDS011;2265;48.794;9.520;2023-10-19T05:33:15;14.73;;;6.90;;
4504;SDS011;2265;48.794;9.520;2023-10-19T05:35:45;16.73;;;7.70;;
4504;SDS011;2265;48.794;9.520;2023-10-19T05:38:13;13.73;;;6.37;;
4504;SDS011;2265;48.794;9.520;2023-10-19T05:40:40;11.70;;;6.30;;
4504;SDS011;2265;48.794;9.520;2023-10-19T05:43:08;11.60;;;5.67;;
4504;SDS011;2265;48.794;9.520;2023-10-19T05:45:36;11.60;;;5.83;;
4504;SDS011;2265;48.794;9.520;2023-10-19T05:48:04;13.93;;;6.27;;
4504;SDS011;2265;48.794;9.520;2023-10-19T05:50:32;9.50;;;5.43;;
4504;SDS011;2265;48.794;9.520;2023-10-19T05:52:59;11.00;;;5.67;;
4504;SDS011;2265;48.794;9.520;2023-10-19T05:55:29;12.70;;;6.43;;
4504;SDS011;2265;48.794;9.520;2023-10-19T05:57:58;13.00;;;6.30;;
4504;SDS011;2265;48.794;9.520;2023-10-19T06:00:26;16.03;;;7.47;;
4504;SDS011;2265;48.794;9.520;2023-10-19T06:02:55;14.10;;;6.73;;
4504;SDS011;2265;48.794;9.520;2023-10-19T06:05:23;14.50;;;6.97;;
4504;SDS011;2265;48.794;9.520;2023-10-19T06:07:50;13.23;;;7.10;;
4504;SDS011;2265;48.794;9.520;2023-10-19T06:10:18;15.93;;;7.60;;
4504;SDS011;2265;48.794;9.520;2023-10-19T06:12:48;17.77;;;7.50;;
4504;SDS011;2265;48.794;9.520;2023-10-19T06:15:16;14.60;;;6.90;;
4504;SDS011;2265;48.794;9.520;2023-10-19T06:17:46;15.20;;;7.30;;
4504;SDS011;2265;48.794;9.520;2023-10-19T06:20:18;16.43;;;8.03;;
4504;SDS011;2265;48.794;9.520;2023-10-19T06:22:51;17.30;;;7.40;;
4504;SDS011;2265;48.794;9.520;2023-10-19T06:25:21;19.00;;;6.90;;
4504;SDS011;2265;48.794;9.520;2023-10-19T06:27:50;12.33;;;6.77;;
4504;SDS011;2265;48.794;9.520;2023-10-19T06:30:18;14.23;;;6.60;;
4504;SDS011;2265;48.794;9.520;2023-10-19T06:32:48;15.20;;;7.40;;
4504;SDS011;2265;48.794;9.520;2023-10-19T06:35:18;14.00;;;7.00;;
4504;SDS011;2265;48.794;9.520;2023-10-19T06:37:47;16.30;;;8.10;;
4504;SDS011;2265;48.794;9.520;2023-10-19T06:40:15;15.47;;;7.27;;
4504;SDS011;2265;48.794;9.520;2023-10-19T06:42:43;13.20;;;6.13;;
4504;SDS011;2265;48.794;9.520;2023-10-19T06:45:10;14.90;;;6.67;;
4504;SDS011;2265;48.794;9.520;2023-10-19T06:47:39;12.83;;;6.60;;
4504;SDS011;2265;48.794;9.520;2023-10-19T06:50:08;14.77;;;7.40;;
4504;SDS011;2265;48.794;9.520;2023-10-19T06:52:37;11.87;;;6.23;;
4504;SDS011;2265;48.794;9.520;2023-10-19T06:55:05;15.03;;;6.70;;
4504;SDS011;2265;48.794;9.520;2023-10-19T06:57:38;12.67;;;6.63;;
4504;SDS011;2265;48.794;9.520;2023-10-19T07:00:06;13.60;;;6.60;;
4504;SDS011;2265;48.794;9.520;2023-10-19T07:02:39;16.00;;;7.60;;
4504;SDS011;2265;48.794;9.520;2023-10-19T07:05:08;18.33;;;8.10;;
4504;SDS011;2265;48.794;9.520;2023-10-19T07:07:39;14.47;;;7.53;;
4504;SDS011;2265;48.794;9.520;2023-10-19T07:10:07;10.70;;;5.37;;
4504;SDS011;2265;48.794;9.520;2023-10-19T07:12:37;15.17;;;7.67;;
4504;SDS011;2265;48.794;9.520;2023-10-19T07:15:05;12.03;;;6.60;;
4504;SDS011;2265;48.794;9.520;2023-10-19T07:17:34;13.37;;;7.07;;
4504;SDS011;2265;48.794;9.520;2023-10-19T07:20:04;12.10;;;6.70;;
4504;SDS011;2265;48.794;9.520;2023-10-19T07:22:33;14.00;;;7.30;;
4504;SDS011;2265;48.794;9.520;2023-10-19T07:25:06;19.30;;;8.63;;
4504;SDS011;2265;48.794;9.520;2023-10-19T07:27:34;20.83;;;8.07;;
4504;SDS011;2265;48.794;9.520;2023-10-19T07:30:01;18.73;;;8.80;;
4504;SDS011;2265;48.794;9.520;2023-10-19T07:32:31;18.53;;;7.93;;
4504;SDS011;2265;48.794;9.520;2023-10-19T07:34:58;16.03;;;6.90;;
4504;SDS011;2265;48.794;9.520;2023-10-19T07:37:25;17.80;;;7.50;;
4504;SDS011;2265;48.794;9.520;2023-10-19T07:39:54;14.90;;;6.80;;
4504;SDS011;2265;48.794;9.520;2023-10-19T07:42:24;11.93;;;5.90;;
4504;SDS011;2265;48.794;9.520;2023-10-19T07:44:51;10.20;;;5.90;;
4504;SDS011;2265;48.794;9.520;2023-10-19T07:47:19;14.23;;;6.53;;
4504;SDS011;2265;48.794;9.520;2023-10-19T07:49:46;14.03;;;6.80;;
4504;SDS011;2265;48.794;9.520;2023-10-19T07:52:17;15.40;;;7.37;;
4504;SDS011;2265;48.794;9.520;2023-10-19T07:54:44;15.37;;;7.40;;
4504;SDS011;2265;48.794;9.520;2023-10-19T07:57:12;17.67;;;7.90;;
4504;SDS011;2265;48.794;9.520;2023-10-19T07:59:40;22.17;;;9.20;;
4504;SDS011;2265;48.794;9.520;2023-10-19T08:02:07;17.07;;;7.93;;
4504;SDS011;2265;48.794;9.520;2023-10-19T08:04:36;25.67;;;10.27;;
4504;SDS011;2265;48.794;9.520;2023-10-19T08:07:03;18.13;;;8.20;;
4504;SDS011;2265;48.794;9.520;2023-10-19T08:09:30;17.37;;;8.30;;
4504;SDS011;2265;48.794;9.520;2023-10-19T08:12:00;17.00;;;8.23;;
4504;SDS011;2265;48.794;9.520;2023-10-19T08:14:31;16.77;;;7.97;;
4504;SDS011;2265;48.794;9.520;2023-10-19T08:16:59;21.70;;;8.30;;
4504;SDS011;2265;48.794;9.520;2023-10-19T08:19:27;18.90;;;8.30;;
4504;SDS011;2265;48.794;9.520;2023-10-19T08:21:56;17.27;;;7.97;;
4504;SDS011;2265;48.794;9.520;2023-10-19T08:24:23;21.80;;;8.77;;
4504;SDS011;2265;48.794;9.520;2023-10-19T08:26:52;18.47;;;8.13;;
4504;SDS011;2265;48.794;9.520;2023-10-19T08:29:21;18.30;;;8.23;;
4504;SDS011;2265;48.794;9.520;2023-10-19T08:31:49;15.90;;;8.13;;
4504;SDS011;2265;48.794;9.520;2023-10-19T08:34:17;17.83;;;7.70;;
4504;SDS011;2265;48.794;9.520;2023-10-19T08:37:15;12.00;;;7.00;;
4504;SDS011;2265;48.794;9.520;2023-10-19T08:39:45;16.53;;;7.53;;
4504;SDS011;2265;48.794;9.520;2023-10-19T08:42:15;17.97;;;7.93;;
4504;SDS011;2265;48.794;9.520;2023-10-19T08:44:42;18.50;;;8.53;;
4504;SDS011;2265;48.794;9.520;2023-10-19T08:47:10;17.30;;;7.63;;
4504;SDS011;2265;48.794;9.520;2023-10-19T08:49:38;16.77;;;7.60;;
4504;SDS011;2265;48.794;9.520;2023-10-19T08:52:06;18.90;;;8.70;;
4504;SDS011;2265;48.794;9.520;2023-10-19T08:54:34;18.80;;;8.50;;
4504;SDS011;2265;48.794;9.520;2023-10-19T08:57:02;16.60;;;8.70;;
4504;SDS011;2265;48.794;9.520;2023-10-19T08:59:29;16.53;;;7.97;;
4504;SDS011;2265;48.794;9.520;2023-10-19T09:02:02;18.77;;;7.90;;
4504;SDS011;2265;48.794;9.520;2023-10-19T09:04:31;11.80;;;6.27;;
4504;SDS011;2265;48.794;9.520;2023-10-19T09:07:00;12.03;;;6.23;;
4504;SDS011;2265;48.794;9.520;2023-10-19T09:09:33;11.77;;;6.23;;
4504;SDS011;2265;48.794;9.520;2023-10-19T09:12:05;10.80;;;5.67;;
4504;SDS011;2265;48.794;9.520;2023-10-19T09:14:33;15.20;;;5.97;;
4504;SDS011;2265;48.794;9.520;2023-10-19T09:17:06;12.60;;;6.50;;
4504;SDS011;2265;48.794;9.520;2023-10-19T09:19:37;10.77;;;6.30;;
4504;SDS011;2265;48.794;9.520;2023-10-19T09:22:08;14.67;;;6.53;;
4504;SDS011;2265;48.794;9.520;2023-10-19T09:24:43;17.40;;;8.70;;
4504;SDS011;2265;48.794;9.520;2023-10-19T09:27:16;17.67;;;8.60;;
4504;SDS011;2265;48.794;9.520;2023-10-19T09:29:43;13.37;;;7.10;;
4504;SDS011;2265;48.794;9.520;2023-10-19T09:32:11;14.10;;;7.30;;
4504;SDS011;2265;48.794;9.520;2023-10-19T09:34:39;15.10;;;7.57;;
4504;SDS011;2265;48.794;9.520;2023-10-19T09:37:10;11.10;;;6.03;;
4504;SDS011;2265;48.794;9.520;2023-10-19T09:39:38;14.40;;;6.50;;
4504;SDS011;2265;48.794;9.520;2023-10-19T09:42:08;18.50;;;7.37;;
4504;SDS011;2265;48.794;9.520;2023-10-19T09:44:41;14.07;;;7.57;;
4504;SDS011;2265;48.794;9.520;2023-10-19T09:47:10;14.73;;;6.93;;
4504;SDS011;2265;48.794;9.520;2023-10-19T09:49:39;15.03;;;7.03;;
4504;SDS011;2265;48.794;9.520;2023-10-19T09:52:10;13.27;;;6.87;;
4504;SDS011;2265;48.794;9.520;2023-10-19T09:54:44;13.53;;;7.03;;
4504;SDS011;2265;48.794;9.520;2023-10-19T09:57:22;14.80;;;7.17;;
4504;SDS011;2265;48.794;9.520;2023-10-19T10:00:07;15.20;;;7.10;;
4504;SDS011;2265;48.794;9.520;2023-10-19T10:02:38;15.03;;;8.03;;
4504;SDS011;2265;48.794;9.520;2023-10-19T10:10:59;16.57;;;8.00;;
4504;SDS011;2265;48.794;9.520;2023-10-19T10:13:47;13.70;;;7.00;;
4504;SDS011;2265;48.794;9.520;2023-10-19T10:16:18;13.20;;;6.73;;
4504;SDS011;2265;48.794;9.520;2023-10-19T10:18:48;13.80;;;7.20;;
4504;SDS011;2265;48.794;9.520;2023-10-19T10:21:17;22.47;;;7.33;;
4504;SDS011;2265;48.794;9.520;2023-10-19T10:23:50;13.97;;;7.27;;
4504;SDS011;2265;48.794;9.520;2023-10-19T10:26:20;13.90;;;7.37;;
4504;SDS011;2265;48.794;9.520;2023-10-19T10:31:42;13.33;;;7.40;;
4504;SDS011;2265;48.794;9.520;2023-10-19T10:34:16;16.97;;;8.17;;
4504;SDS011;2265;48.794;9.520;2023-10-19T10:37:09;15.13;;;8.10;;
4504;SDS011;2265;48.794;9.520;2023-10-19T10:39:40;16.53;;;7.60;;
4504;SDS011;2265;48.794;9.520;2023-10-19T10:42:09;14.40;;;7.70;;
4504;SDS011;2265;48.794;9.520;2023-10-19T10:44:37;13.03;;;6.60;;
4504;SDS011;2265;48.794;9.520;2023-10-19T10:47:06;17.40;;;7.97;;
4504;SDS011;2265;48.794;9.520;2023-10-19T10:49:35;12.90;;;6.90;;
4504;SDS011;2265;48.794;9.520;2023-10-19T10:52:22;14.37;;;7.87;;
4504;SDS011;2265;48.794;9.520;2023-10-19T10:54:52;14.00;;;6.80;;
4504;SDS011;2265;48.794;9.520;2023-10-19T10:57:20;14.20;;;6.73;;
4504;SDS011;2265;48.794;9.520;2023-10-19T11:00:00;13.37;;;7.63;;
4504;SDS011;2265;48.794;9.520;2023-10-19T11:02:28;13.97;;;6.87;;
4504;SDS011;2265;48.794;9.520;2023-10-19T11:04:55;17.13;;;7.40;;
4504;SDS011;2265;48.794;9.520;2023-10-19T11:07:30;12.57;;;6.20;;
4504;SDS011;2265;48.794;9.520;2023-10-19T11:09:58;11.63;;;6.30;;
4504;SDS011;2265;48.794;9.520;2023-10-19T11:12:26;14.33;;;7.17;;
4504;SDS011;2265;48.794;9.520;2023-10-19T11:14:54;14.13;;;7.23;;
4504;SDS011;2265;48.794;9.520;2023-10-19T11:17:22;12.93;;;6.77;;
4504;SDS011;2265;48.794;9.520;2023-10-19T11:19:53;14.60;;;6.77;;
4504;SDS011;2265;48.794;9.520;2023-10-19T11:22:22;12.90;;;6.73;;
4504;SDS011;2265;48.794;9.520;2023-10-19T11:24:51;12.43;;;6.00;;
4504;SDS011;2265;48.794;9.520;2023-10-19T11:27:23;14.53;;;6.83;;
4504;SDS011;2265;48.794;9.520;2023-10-19T11:29:54;13.70;;;7.47;;
4504;SDS011;2265;48.794;9.520;2023-10-19T11:32:22;11.73;;;6.57;;
4504;SDS011;2265;48.794;9.520;2023-10-19T11:34:50;11.33;;;6.20;;
4504;SDS011;2265;48.794;9.520;2023-10-19T11:37:18;17.20;;;6.23;;
4504;SDS011;2265;48.794;9.520;2023-10-19T11:39:45;19.57;;;6.60;;
4504;SDS011;2265;48.794;9.520;2023-10-19T11:42:13;10.03;;;5.73;;
4504;SDS011;2265;48.794;9.520;2023-10-19T11:44:41;11.37;;;5.80;;
4504;SDS011;2265;48.794;9.520;2023-10-19T11:47:08;9.83;;;5.20;;
4504;SDS011;2265;48.794;9.520;2023-10-19T11:49:35;8.07;;;4.73;;
4504;SDS011;2265;48.794;9.520;2023-10-19T11:52:04;11.83;;;6.00;;
4504;SDS011;2265;48.794;9.520;2023-10-19T11:54:32;8.00;;;5.30;;
4504;SDS011;2265;48.794;9.520;2023-10-19T11:56:59;12.60;;;6.70;;
4504;SDS011;2265;48.794;9.520;2023-10-19T11:59:27;20.20;;;7.40;;
4504;SDS011;2265;48.794;9.520;2023-10-19T12:01:55;11.60;;;6.73;;
4504;SDS011;2265;48.794;9.520;2023-10-19T12:04:24;11.50;;;6.80;;
4504;SDS011;2265;48.794;9.520;2023-10-19T12:06:51;13.40;;;5.90;;
4504;SDS011;2265;48.794;9.520;2023-10-19T12:09:18;14.17;;;8.27;;
4504;SDS011;2265;48.794;9.520;2023-10-19T12:11:49;14.67;;;7.13;;
4504;SDS011;2265;48.794;9.520;2023-10-19T12:14:18;12.77;;;7.87;;
4504;SDS011;2265;48.794;9.520;2023-10-19T12:16:46;13.53;;;7.20;;
4504;SDS011;2265;48.794;9.520;2023-10-19T12:19:14;11.83;;;6.87;;
4504;SDS011;2265;48.794;9.520;2023-10-19T12:21:44;12.63;;;7.27;;
4504;SDS011;2265;48.794;9.520;2023-10-19T12:24:11;14.30;;;7.60;;
4504;SDS011;2265;48.794;9.520;2023-10-19T12:26:40;16.97;;;7.47;;
4504;SDS011;2265;48.794;9.520;2023-10-19T12:29:07;12.73;;;7.10;;
4504;SDS011;2265;48.794;9.520;2023-10-19T12:31:36;12.97;;;6.50;;
4504;SDS011;2265;48.794;9.520;2023-10-19T12:34:05;10.53;;;5.77;;
4504;SDS011;2265;48.794;9.520;2023-10-19T12:36:34;13.77;;;6.97;;
4504;SDS011;2265;48.794;9.520;2023-10-19T12:39:02;13.27;;;6.60;;
4504;SDS011;2265;48.794;9.520;2023-10-19T12:41:31;11.17;;;6.40;;
4504;SDS011;2265;48.794;9.520;2023-10-19T12:43:58;11.13;;;5.10;;
4504;SDS011;2265;48.794;9.520;2023-10-19T12:46:27;8.77;;;5.20;;
4504;SDS011;2265;48.794;9.520;2023-10-19T12:48:55;9.23;;;4.33;;
4504;SDS011;2265;48.794;9.520;2023-10-19T12:51:23;5.50;;;3.87;;
4504;SDS011;2265;48.794;9.520;2023-10-19T12:53:52;8.03;;;4.87;;
4504;SDS011;2265;48.794;9.520;2023-10-19T12:56:20;5.83;;;3.83;;
4504;SDS011;2265;48.794;9.520;2023-10-19T12:58:49;5.60;;;3.70;;
4504;SDS011;2265;48.794;9.520;2023-10-19T13:01:16;5.07;;;3.37;;
4504;SDS011;2265;48.794;9.520;2023-10-19T13:03:44;4.30;;;3.03;;
4504;SDS011;2265;48.794;9.520;2023-10-19T13:06:12;5.00;;;2.97;;
4504;SDS011;2265;48.794;9.520;2023-10-19T13:08:39;8.83;;;4.00;;
4504;SDS011;2265;48.794;9.520;2023-10-19T13:11:08;7.20;;;4.47;;
4504;SDS011;2265;48.794;9.520;2023-10-19T13:13:39;5.50;;;3.67;;
4504;SDS011;2265;48.794;9.520;2023-10-19T13:16:07;4.20;;;3.10;;
4504;SDS011;2265;48.794;9.520;2023-10-19T13:18:35;4.67;;;2.83;;
4504;SDS011;2265;48.794;9.520;2023-10-19T13:21:02;5.50;;;2.80;;
4504;SDS011;2265;48.794;9.520;2023-10-19T13:23:30;4.10;;;2.90;;
4504;SDS011;2265;48.794;9.520;2023-10-19T13:25:59;7.40;;;3.70;;
4504;SDS011;2265;48.794;9.520;2023-10-19T13:28:43;7.93;;;4.67;;
4504;SDS011;2265;48.794;9.520;2023-10-19T13:31:11;6.17;;;4.20;;
4504;SDS011;2265;48.794;9.520;2023-10-19T13:33:39;8.17;;;5.13;;
4504;SDS011;2265;48.794;9.520;2023-10-19T13:36:07;6.93;;;4.07;;
4504;SDS011;2265;48.794;9.520;2023-10-19T13:38:34;7.40;;;4.33;;
4504;SDS011;2265;48.794;9.520;2023-10-19T13:41:02;7.80;;;4.40;;
4504;SDS011;2265;48.794;9.520;2023-10-19T13:43:35;5.53;;;4.00;;
4504;SDS011;2265;48.794;9.520;2023-10-19T13:46:04;6.23;;;3.70;;
4504;SDS011;2265;48.794;9.520;2023-10-19T13:48:31;6.90;;;4.10;;
4504;SDS011;2265;48.794;9.520;2023-10-19T13:50:58;7.60;;;4.40;;
4504;SDS011;2265;48.794;9.520;2023-10-19T13:53:31;8.47;;;4.97;;
4504;SDS011;2265;48.794;9.520;2023-10-19T13:55:58;6.80;;;4.50;;
4504;SDS011;2265;48.794;9.520;2023-10-19T13:58:25;6.80;;;4.33;;
4504;SDS011;2265;48.794;9.520;2023-10-19T14:00:52;8.93;;;4.40;;
4504;SDS011;2265;48.794;9.520;2023-10-19T14:03:21;10.00;;;5.57;;
4504;SDS011;2265;48.794;9.520;2023-10-19T14:05:48;11.37;;;5.80;;
4504;SDS011;2265;48.794;9.520;2023-10-19T14:08:15;10.70;;;5.90;;
4504;SDS011;2265;48.794;9.520;2023-10-19T14:10:46;9.23;;;5.43;;
4504;SDS011;2265;48.794;9.520;2023-10-19T14:13:13;11.00;;;5.63;;
4504;SDS011;2265;48.794;9.520;2023-10-19T14:15:41;9.80;;;5.07;;
4504;SDS011;2265;48.794;9.520;2023-10-19T14:18:08;10.43;;;6.20;;
4504;SDS011;2265;48.794;9.520;2023-10-19T14:20:37;10.13;;;5.60;;
4504;SDS011;2265;48.794;9.520;2023-10-19T14:23:05;11.10;;;5.30;;
4504;SDS011;2265;48.794;9.520;2023-10-19T14:25:36;10.50;;;5.60;;
4504;SDS011;2265;48.794;9.520;2023-10-19T14:28:04;8.67;;;5.80;;
4504;SDS011;2265;48.794;9.520;2023-10-19T14:30:32;12.83;;;6.83;;
4504;SDS011;2265;48.794;9.520;2023-10-19T14:33:00;12.47;;;6.17;;
4504;SDS011;2265;48.794;9.520;2023-10-19T14:35:27;12.07;;;6.67;;
4504;SDS011;2265;48.794;9.520;2023-10-19T14:37:56;9.70;;;5.20;;
4504;SDS011;2265;48.794;9.520;2023-10-19T14:40:26;11.47;;;6.67;;
4504;SDS011;2265;48.794;9.520;2023-10-19T14:42:54;15.77;;;7.77;;
4504;SDS011;2265;48.794;9.520;2023-10-19T14:45:23;9.70;;;5.50;;
4504;SDS011;2265;48.794;9.520;2023-10-19T14:47:53;15.53;;;7.30;;
4504;SDS011;2265;48.794;9.520;2023-10-19T14:50:22;11.97;;;7.23;;
4504;SDS011;2265;48.794;9.520;2023-10-19T14:52:51;11.70;;;6.87;;
4504;SDS011;2265;48.794;9.520;2023-10-19T14:55:20;12.70;;;6.87;;
4504;SDS011;2265;48.794;9.520;2023-10-19T14:57:48;11.20;;;6.57;;
4504;SDS011;2265;48.794;9.520;2023-10-19T15:00:18;13.40;;;6.43;;
4504;SDS011;2265;48.794;9.520;2023-10-19T15:02:51;11.40;;;6.20;;
4504;SDS011;2265;48.794;9.520;2023-10-19T15:05:20;11.73;;;6.67;;
4504;SDS011;2265;48.794;9.520;2023-10-19T15:07:49;13.13;;;7.00;;
4504;SDS011;2265;48.794;9.520;2023-10-19T15:10:18;11.23;;;5.83;;
4504;SDS011;2265;48.794;9.520;2023-10-19T15:12:47;14.17;;;7.20;;
4504;SDS011;2265;48.794;9.520;2023-10-19T15:15:15;9.53;;;5.93;;
4504;SDS011;2265;48.794;9.520;2023-10-19T15:17:43;14.70;;;7.30;;
4504;SDS011;2265;48.794;9.520;2023-10-19T15:20:12;11.33;;;6.07;;
4504;SDS011;2265;48.794;9.520;2023-10-19T15:22:41;11.70;;;5.73;;
4504;SDS011;2265;48.794;9.520;2023-10-19T15:25:08;9.73;;;5.77;;
4504;SDS011;2265;48.794;9.520;2023-10-19T15:27:37;12.77;;;6.40;;